Tropical Cyclones
[Index]
Season 2017-2018 Tropical Cyclone IRVING Track Map
Season 2017-2018 Summaries: [BoM-AU] [JTWC-AU] [JTWC-SIO] [JTWC-SPAC] [JTWC-SH]
<<- Previous TC | JTWC 2017-2018 Season | Next TC ->>

click for intensity scale information  Lat/long Grid: Show Hide

 Date Labels: Show Hide

Joint Typhoon Warning Centre Cyclone Data

Name: IRVING

04 Jan 2018 18:00 UTC to 11 Jan 2018 06:00 UTC

    date/time    lat    long     hPa   cat  kts
2018-01-04 18   10.3    94.5    1004         25          
2018-01-05 00   10.8    94.3    1002         30          
2018-01-05 06   11.4    94.3    1001         35          
2018-01-05 12   11.9    94.0    1000         35          
2018-01-05 18   12.2    92.7     998         35          
2018-01-06 00   12.4    91.7     996    1    40          
2018-01-06 06   12.4    90.5     995    1    45          
2018-01-06 12   12.7    90.0     991    1    50          
2018-01-06 18   12.9    88.1     989    2    55          
2018-01-07 00   13.5    86.9     986    2    60          
2018-01-07 00   13.5    86.9     986    2    60          
2018-01-07 06   14.0    85.7     981    2    70          
2018-01-07 06   14.0    85.7     981    2    70          
2018-01-07 06   14.0    85.7     981    2    70          
2018-01-07 12   14.7    84.4     975    3    75          
2018-01-07 12   14.7    84.4     975    3    75          
2018-01-07 12   14.7    84.4     975    3    75          
2018-01-07 18   15.7    82.8     967    3    90          
2018-01-07 18   15.7    82.8     967    3    90          
2018-01-07 18   15.7    82.8     967    3    90          
2018-01-08 00   16.6    81.3     962    3    95          
2018-01-08 00   16.6    81.3     962    3    95          
2018-01-08 00   16.6    81.3     962    3    95          
2018-01-08 06   17.5    79.5     967    3    90          
2018-01-08 06   17.5    79.5     967    3    90          
2018-01-08 06   17.5    79.5     967    3    90          
2018-01-08 12   18.3    78.2     967    3    90          
2018-01-08 12   18.3    78.2     967    3    90          
2018-01-08 12   18.3    78.2     967    3    90          
2018-01-08 18   19.4    76.5     970    3    85          
2018-01-08 18   19.4    76.5     970    3    85          
2018-01-08 18   19.4    76.5     970    3    85          
2018-01-09 00   20.1    75.2     973    3    80          
2018-01-09 00   20.1    75.2     973    3    80          
2018-01-09 00   20.1    75.2     973    3    80          
2018-01-09 06   21.4    73.4     980    2    70          
2018-01-09 06   21.4    73.4     980    2    70          
2018-01-09 06   21.4    73.4     980    2    70          
2018-01-09 12   22.4    72.0     982    2    65          
2018-01-09 12   22.4    72.0     982    2    65          
2018-01-09 12   22.4    72.0     982    2    65          
2018-01-09 18   23.8    70.4     982    2    65          
2018-01-09 18   23.8    70.4     982    2    65          
2018-01-10 00   25.5    69.1     982    2    55          
2018-01-10 00   25.5    69.1     982    2    55          
2018-01-10 06   27.7    68.1     989    1    45          
2018-01-10 12   29.9    67.9     989    1    45          
2018-01-10 18   33.4    68.1     990    1    45          
2018-01-11 00   36.6    71.7     984    1    50          
2018-01-11 06   41.0    75.8     984    1    50          
Winds are 1-min average.

Tropical cyclone tracks developed by Michael Bath using data from the Joint Typhoon Warning Centre Best Tracks and Google Maps.


Document: tropical_cyclone_irving.htm
Updated: 17 June 2020
[Australian Severe Weather index] [Copyright Notice] [Email Contacts] [Search This Site] [Privacy Policy]


Main Index Home Page Stock Weather Photos Extreme Storms Discussion Storm News and Storm Chasing Reports Tropical Cyclones / Hurricanes / Typhoons Weather Data and Links Wild Fires / Bushfires Weather Observation Techniques Weather Picture Catalogue Tornado Pictures and Reports Stock Video Footage and DVDs for sale